Time;durP1;ratioP1;P1;durP2;ratioP2;P2;SDS_P1;SDS_P2;PMS_P1;PMS_P2;Temp;Humidity;BMP_temperature;BMP_pressure;BME280_temperature;BME280_humidity;BME280_pressure;Samples;Min_cycle;Max_cycle;Signal;HPM_P1;HPM_P2
2021/05/20 00:00:13;;;;;;;17.20;11.55;;;9.10;99.90;;;;;;5072705;28;20512;-80
2021/05/20 00:02:39;;;;;;;20.83;12.20;;;9.00;99.90;;;;;;5073847;28;20021;-80
2021/05/20 00:05:06;;;;;;;20.88;12.23;;;9.00;99.90;;;;;;5074018;28;20040;-79
2021/05/20 00:07:32;;;;;;;23.70;11.88;;;9.00;99.90;;;;;;5072486;28;20044;-80
2021/05/20 00:09:58;;;;;;;17.60;12.20;;;9.00;99.90;;;;;;5071653;28;20028;-80
2021/05/20 00:12:23;;;;;;;19.63;11.35;;;9.00;99.90;;;;;;5073693;28;20031;-80
2021/05/20 00:14:49;;;;;;;20.00;11.55;;;9.00;99.90;;;;;;5073687;28;20025;-80
2021/05/20 00:17:15;;;;;;;21.33;11.75;;;9.00;99.90;;;;;;5072270;28;20036;-80
2021/05/20 00:19:40;;;;;;;18.05;11.27;;;9.00;99.90;;;;;;5073534;28;20056;-81
2021/05/20 00:22:06;;;;;;;17.27;10.90;;;8.90;99.90;;;;;;5072236;28;20016;-80
2021/05/20 00:24:32;;;;;;;22.75;12.82;;;8.90;99.90;;;;;;5072224;28;20033;-80
2021/05/20 00:26:57;;;;;;;18.45;11.68;;;8.90;99.90;;;;;;5073480;28;20025;-80
2021/05/20 00:29:23;;;;;;;17.50;11.80;;;8.80;99.90;;;;;;5073330;28;20055;-79
2021/05/20 00:31:49;;;;;;;21.27;12.30;;;8.80;99.90;;;;;;5073416;28;20024;-80
2021/05/20 00:34:14;;;;;;;17.48;11.48;;;8.80;99.90;;;;;;5071949;28;20028;-80
2021/05/20 00:36:40;;;;;;;23.10;13.73;;;8.70;99.90;;;;;;5071941;28;20099;-80
2021/05/20 00:39:06;;;;;;;23.45;13.65;;;8.70;99.90;;;;;;5073214;28;20048;-79
2021/05/20 00:41:31;;;;;;;21.98;12.30;;;8.70;99.90;;;;;;5073240;28;20474;-79
2021/05/20 00:43:57;;;;;;;17.08;11.43;;;8.60;99.90;;;;;;5073215;28;20029;-79
2021/05/20 00:46:22;;;;;;;19.80;12.02;;;8.60;99.90;;;;;;5073230;28;20024;-80
2021/05/20 00:48:48;;;;;;;21.67;13.90;;;8.60;99.90;;;;;;5073340;28;20024;-79
2021/05/20 00:51:14;;;;;;;18.15;12.38;;;8.60;99.90;;;;;;5073114;28;20021;-80
2021/05/20 00:53:40;;;;;;;18.08;11.80;;;8.60;99.90;;;;;;5071689;28;20029;-79
2021/05/20 00:56:07;;;;;;;18.45;11.80;;;8.50;99.90;;;;;;5073005;28;20043;-79
2021/05/20 00:58:33;;;;;;;20.75;13.50;;;8.50;99.90;;;;;;5072903;28;20054;-79
2021/05/20 01:00:59;;;;;;;18.92;11.82;;;8.50;99.90;;;;;;5072622;28;20117;-79
2021/05/20 01:03:24;;;;;;;21.77;11.15;;;8.50;99.90;;;;;;5072896;28;20031;-79
2021/05/20 01:05:56;;;;;;;18.63;10.80;;;8.50;99.90;;;;;;5072893;28;20032;-80
2021/05/20 01:08:22;;;;;;;16.25;10.18;;;8.40;99.90;;;;;;5071614;28;20111;-80
2021/05/20 01:10:48;;;;;;;14.32;9.38;;;8.40;99.90;;;;;;5069703;28;20186;-80
2021/05/20 01:13:14;;;;;;;14.15;10.23;;;8.40;99.90;;;;;;5071554;28;20020;-80
2021/05/20 01:15:40;;;;;;;17.52;10.13;;;8.40;99.90;;;;;;5071482;28;20024;-80
2021/05/20 01:18:06;;;;;;;15.63;10.52;;;8.40;99.90;;;;;;5071410;28;20041;-80
2021/05/20 01:20:38;;;;;;;16.73;10.48;;;8.40;99.90;;;;;;5074774;28;20031;-80
2021/05/20 01:23:05;;;;;;;14.43;8.45;;;8.40;99.90;;;;;;5079542;28;20027;-80
2021/05/20 01:25:31;;;;;;;14.75;9.52;;;8.40;99.90;;;;;;5088857;28;20118;-80
2021/05/20 01:28:03;;;;;;;19.83;9.45;;;8.40;99.90;;;;;;5099642;28;20462;-79
2021/05/20 01:30:30;;;;;;;13.88;9.88;;;8.40;99.90;;;;;;5099912;28;20077;-80
2021/05/20 01:32:56;;;;;;;12.10;7.88;;;8.40;99.90;;;;;;5098313;28;20024;-80
2021/05/20 01:35:22;;;;;;;15.05;10.15;;;8.40;99.90;;;;;;5098347;28;20023;-80
2021/05/20 01:37:48;;;;;;;13.48;9.20;;;8.40;99.90;;;;;;5098165;28;20151;-79
2021/05/20 01:40:14;;;;;;;15.15;9.85;;;8.40;99.90;;;;;;5099555;28;20039;-79
2021/05/20 01:42:40;;;;;;;15.80;10.55;;;8.30;99.90;;;;;;5099478;28;20434;-79
2021/05/20 01:45:07;;;;;;;14.18;10.25;;;8.30;99.90;;;;;;5099576;28;20024;-79
2021/05/20 01:47:33;;;;;;;14.85;10.05;;;8.30;99.90;;;;;;5098081;28;20028;-79
2021/05/20 01:49:59;;;;;;;17.30;9.98;;;8.30;99.90;;;;;;5098246;28;20024;-80
2021/05/20 01:52:24;;;;;;;16.85;10.48;;;8.20;99.90;;;;;;5098072;28;20023;-79
2021/05/20 01:54:50;;;;;;;16.52;12.18;;;8.20;99.90;;;;;;5098197;28;20020;-79
2021/05/20 01:57:15;;;;;;;22.23;12.48;;;8.20;99.90;;;;;;5097984;28;20109;-80
2021/05/20 01:59:42;;;;;;;18.77;13.05;;;8.10;99.90;;;;;;5099358;28;20385;-80
2021/05/20 02:02:07;;;;;;;19.05;12.45;;;8.10;99.90;;;;;;5098062;28;20017;-79
2021/05/20 02:04:33;;;;;;;20.85;12.10;;;8.10;99.90;;;;;;5097960;28;20028;-79
2021/05/20 02:06:59;;;;;;;25.13;13.00;;;8.00;99.90;;;;;;5099472;28;20024;-80
2021/05/20 02:09:24;;;;;;;21.63;13.65;;;8.00;99.90;;;;;;5099232;28;20028;-79
2021/05/20 02:11:50;;;;;;;19.70;13.43;;;8.00;99.90;;;;;;5098025;28;20031;-79
2021/05/20 02:14:16;;;;;;;23.35;13.65;;;8.00;99.90;;;;;;5097861;28;20028;-80
2021/05/20 02:16:42;;;;;;;24.17;12.77;;;8.00;99.90;;;;;;5088871;28;20062;-79
2021/05/20 02:19:08;;;;;;;20.50;12.75;;;8.00;99.90;;;;;;5078836;28;20032;-80
2021/05/20 02:21:34;;;;;;;23.10;13.68;;;8.10;99.90;;;;;;5077578;28;20417;-80
2021/05/20 02:23:59;;;;;;;19.35;13.70;;;8.10;99.90;;;;;;5078879;28;20115;-79
2021/05/20 02:26:25;;;;;;;21.95;14.23;;;8.10;99.90;;;;;;5078941;28;20020;-79
2021/05/20 02:28:51;;;;;;;24.35;16.67;;;8.00;99.90;;;;;;5077496;28;20058;-80
2021/05/20 02:31:16;;;;;;;26.38;16.70;;;8.00;99.90;;;;;;5078807;28;20020;-79
2021/05/20 02:33:42;;;;;;;28.20;18.20;;;7.90;99.90;;;;;;5073295;28;20024;-79
2021/05/20 02:36:08;;;;;;;31.17;18.45;;;7.90;99.90;;;;;;5074301;28;20516;-79
2021/05/20 02:38:33;;;;;;;30.60;19.48;;;7.90;99.90;;;;;;5074205;28;20103;-79
2021/05/20 02:40:59;;;;;;;30.75;18.38;;;7.90;99.90;;;;;;5074308;28;20381;-79
2021/05/20 02:43:25;;;;;;;36.47;21.35;;;7.80;99.90;;;;;;5075375;28;20544;-80
2021/05/20 02:45:51;;;;;;;31.40;19.90;;;7.80;99.90;;;;;;5075441;28;20063;-79
2021/05/20 02:48:17;;;;;;;34.92;21.08;;;7.80;99.90;;;;;;5075341;28;20052;-79
2021/05/20 02:50:43;;;;;;;33.75;19.75;;;7.80;99.90;;;;;;5075380;28;20021;-80
2021/05/20 02:53:09;;;;;;;33.67;19.13;;;7.70;99.90;;;;;;5074007;28;20025;-79
2021/05/20 02:55:34;;;;;;;29.13;19.70;;;7.70;99.90;;;;;;5075182;28;20017;-79
2021/05/20 02:58:02;;;;;;;28.65;19.73;;;7.70;99.90;;;;;;5073854;28;20025;-79
2021/05/20 03:00:32;;;;;;;29.08;17.95;;;7.70;99.90;;;;;;5075195;28;20090;-79
2021/05/20 03:02:58;;;;;;;26.67;16.73;;;7.70;99.90;;;;;;5075126;28;20033;-79
2021/05/20 03:05:24;;;;;;;28.13;17.33;;;7.70;99.90;;;;;;5073646;28;20032;-79
2021/05/20 03:07:52;;;;;;;28.00;17.10;;;7.70;99.90;;;;;;5075001;28;20028;-79
2021/05/20 03:10:18;;;;;;;25.60;15.18;;;7.70;99.90;;;;;;5075251;28;20020;-79
2021/05/20 03:12:44;;;;;;;21.95;15.70;;;7.80;99.90;;;;;;5074906;28;20043;-79
2021/05/20 03:15:10;;;;;;;26.60;14.88;;;7.80;99.90;;;;;;5074873;28;20025;-80
2021/05/20 03:17:36;;;;;;;24.55;13.55;;;7.80;99.90;;;;;;5073295;28;20047;-79
2021/05/20 03:20:02;;;;;;;25.85;14.88;;;7.80;99.90;;;;;;5074810;28;20025;-79
2021/05/20 03:22:28;;;;;;;22.08;13.13;;;7.80;99.90;;;;;;5073407;28;20367;-80
2021/05/20 03:24:54;;;;;;;20.08;11.80;;;7.90;99.90;;;;;;5073362;28;20024;-80
2021/05/20 03:27:20;;;;;;;18.00;10.88;;;7.90;99.90;;;;;;5074600;28;20029;-79
2021/05/20 03:29:45;;;;;;;21.90;11.77;;;8.00;99.90;;;;;;5074578;28;20020;-79
2021/05/20 03:32:11;;;;;;;18.45;11.10;;;8.10;99.90;;;;;;5073264;28;20071;-79
2021/05/20 03:34:37;;;;;;;16.10;10.73;;;8.20;99.90;;;;;;5074470;28;20416;-79
2021/05/20 03:37:03;;;;;;;18.40;11.23;;;8.30;99.90;;;;;;5074354;28;20034;-79
2021/05/20 03:39:33;;;;;;;18.75;11.80;;;8.40;99.90;;;;;;5073399;28;20021;-79
2021/05/20 03:41:59;;;;;;;16.27;10.55;;;8.60;99.90;;;;;;5074377;28;20020;-79
2021/05/20 03:44:26;;;;;;;19.17;10.07;;;8.70;99.90;;;;;;5072798;28;20030;-79
2021/05/20 03:46:51;;;;;;;13.20;9.50;;;8.80;99.90;;;;;;5074300;28;20025;-79
2021/05/20 03:49:17;;;;;;;18.92;11.93;;;8.90;99.90;;;;;;5072818;28;20024;-79
2021/05/20 03:51:43;;;;;;;15.98;9.25;;;9.00;99.90;;;;;;5072849;28;20021;-80
2021/05/20 03:54:09;;;;;;;16.08;9.95;;;9.20;99.90;;;;;;5074096;28;20024;-79
2021/05/20 03:56:34;;;;;;;15.10;10.57;;;9.20;99.90;;;;;;5073892;28;20032;-80
2021/05/20 03:59:00;;;;;;;13.90;10.35;;;9.20;99.90;;;;;;5073567;28;20051;-79
2021/05/20 04:01:26;;;;;;;16.30;9.57;;;9.30;99.90;;;;;;5074007;28;20478;-80
2021/05/20 04:03:51;;;;;;;19.52;10.48;;;9.30;99.90;;;;;;5072593;28;20074;-79
2021/05/20 04:06:17;;;;;;;14.82;9.48;;;9.40;99.90;;;;;;5072840;28;20025;-79
2021/05/20 04:08:43;;;;;;;16.00;9.52;;;9.50;99.90;;;;;;5073796;28;20111;-79
2021/05/20 04:11:08;;;;;;;13.48;8.90;;;9.70;99.90;;;;;;5073723;28;20044;-80
2021/05/20 04:13:39;;;;;;;17.65;10.23;;;9.90;99.90;;;;;;5072373;28;20021;-79
2021/05/20 04:16:06;;;;;;;14.20;9.30;;;10.10;99.90;;;;;;5073638;28;20028;-80
2021/05/20 04:18:33;;;;;;;13.27;9.60;;;10.20;99.90;;;;;;5072357;28;20029;-80
2021/05/20 04:20:59;;;;;;;13.30;9.02;;;10.50;99.90;;;;;;5072334;28;20051;-80
2021/05/20 04:23:25;;;;;;;15.77;9.52;;;10.70;99.90;;;;;;5072181;28;20502;-79
2021/05/20 04:25:51;;;;;;;12.48;7.97;;;10.70;99.60;;;;;;5073521;28;20051;-80
2021/05/20 04:28:17;;;;;;;14.00;9.20;;;10.60;99.40;;;;;;5072116;28;20028;-80
2021/05/20 04:30:44;;;;;;;12.82;8.48;;;10.60;99.90;;;;;;5073426;28;20036;-80
2021/05/20 04:33:10;;;;;;;14.50;7.55;;;10.70;98.60;;;;;;5073371;28;20070;-80
2021/05/20 04:35:36;;;;;;;11.93;8.00;;;10.70;99.90;;;;;;5072034;28;20031;-79
2021/05/20 04:38:04;;;;;;;10.73;8.68;;;10.90;99.40;;;;;;5071869;28;20029;-80
2021/05/20 04:40:31;;;;;;;13.60;7.63;;;11.10;97.60;;;;;;5071882;28;20183;-80
2021/05/20 04:42:56;;;;;;;8.77;7.05;;;11.30;93.10;;;;;;5073153;28;20036;-80
2021/05/20 04:45:22;;;;;;;9.07;6.45;;;11.30;92.70;;;;;;5071885;28;20021;-80
2021/05/20 04:47:48;;;;;;;11.10;7.25;;;11.20;92.50;;;;;;5077814;28;20031;-80
2021/05/20 04:50:15;;;;;;;10.18;6.85;;;11.40;93.90;;;;;;5092037;28;20039;-80
2021/05/20 04:52:42;;;;;;;11.52;6.30;;;11.50;92.20;;;;;;5081271;28;20094;-80
2021/05/20 04:55:09;;;;;;;10.82;7.18;;;11.50;91.70;;;;;;5071187;28;20020;-80
2021/05/20 04:57:35;;;;;;;14.82;7.35;;;11.50;92.50;;;;;;5071599;28;20028;-80
2021/05/20 05:00:00;;;;;;;8.20;6.55;;;11.50;92.30;;;;;;5066499;28;20443;-80
2021/05/20 05:02:27;;;;;;;10.45;7.07;;;11.50;90.80;;;;;;5070975;28;20546;-79
2021/05/20 05:04:53;;;;;;;10.88;6.25;;;11.50;91.60;;;;;;5072651;28;20035;-79
2021/05/20 05:07:18;;;;;;;10.75;6.10;;;11.50;91.10;;;;;;5073391;28;20029;-79
2021/05/20 05:09:44;;;;;;;7.32;5.55;;;11.50;91.00;;;;;;5073031;28;20071;-80
2021/05/20 05:12:10;;;;;;;9.02;6.18;;;11.60;90.00;;;;;;5071589;28;20066;-80
2021/05/20 05:14:36;;;;;;;12.13;6.68;;;11.40;92.40;;;;;;5069676;28;20028;-79
2021/05/20 05:17:02;;;;;;;8.95;6.40;;;11.30;91.60;;;;;;5069711;28;20043;-79
2021/05/20 05:19:27;;;;;;;12.13;7.88;;;11.30;92.40;;;;;;5071560;28;20021;-79
2021/05/20 05:21:53;;;;;;;9.70;6.28;;;11.40;93.70;;;;;;5071561;28;20025;-79
2021/05/20 05:24:19;;;;;;;9.90;6.63;;;11.40;89.70;;;;;;5071392;28;20043;-79
2021/05/20 05:26:44;;;;;;;8.82;5.90;;;11.40;92.10;;;;;;5072721;28;20021;-79
2021/05/20 05:29:10;;;;;;;9.95;6.72;;;11.40;92.80;;;;;;5072680;28;20033;-80
2021/05/20 05:31:36;;;;;;;10.00;6.57;;;11.50;94.60;;;;;;5064565;28;20020;-79
2021/05/20 05:34:03;;;;;;;10.27;5.70;;;11.30;92.00;;;;;;5070642;28;20028;-80
2021/05/20 05:36:29;;;;;;;10.98;7.03;;;11.30;92.40;;;;;;5069244;28;20029;-80
2021/05/20 05:38:54;;;;;;;13.45;7.93;;;11.40;96.10;;;;;;5069247;28;20020;-79
2021/05/20 05:41:20;;;;;;;10.45;7.38;;;11.20;95.00;;;;;;5062160;28;20028;-79
2021/05/20 05:43:45;;;;;;;19.10;7.95;;;11.10;93.70;;;;;;5061550;28;20075;-79
2021/05/20 05:46:12;;;;;;;14.82;7.70;;;11.20;97.60;;;;;;5060823;28;20047;-79
2021/05/20 05:48:38;;;;;;;13.10;8.68;;;11.10;97.50;;;;;;5055745;28;20029;-79
2021/05/20 05:51:07;;;;;;;12.30;8.55;;;11.20;98.20;;;;;;5061219;28;20075;-79
2021/05/20 05:53:33;;;;;;;12.68;7.88;;;11.10;98.40;;;;;;5057458;28;20067;-79
2021/05/20 05:55:59;;;;;;;12.05;7.80;;;11.10;97.80;;;;;;5052357;28;20505;-80
2021/05/20 05:58:25;;;;;;;12.88;8.85;;;11.20;97.00;;;;;;5067592;28;20016;-80
2021/05/20 06:00:51;;;;;;;14.85;8.60;;;11.10;98.30;;;;;;5072443;28;20358;-80
2021/05/20 06:03:17;;;;;;;12.52;7.95;;;11.20;98.90;;;;;;5070990;28;20020;-79
2021/05/20 06:05:47;;;;;;;14.45;8.60;;;11.10;98.10;;;;;;5069906;28;20063;-79
2021/05/20 06:08:13;;;;;;;12.82;8.65;;;11.20;98.20;;;;;;5071652;28;20555;-80
2021/05/20 06:10:38;;;;;;;13.80;8.43;;;11.20;97.60;;;;;;5073437;28;20024;-79
2021/05/20 06:13:04;;;;;;;16.40;9.00;;;11.40;98.70;;;;;;5073407;28;20456;-80
2021/05/20 06:15:30;;;;;;;11.15;8.05;;;11.50;95.20;;;;;;5074675;28;20104;-80
2021/05/20 06:17:55;;;;;;;11.02;7.95;;;11.60;94.20;;;;;;5074440;28;20056;-80
2021/05/20 06:20:21;;;;;;;16.63;8.75;;;11.60;97.00;;;;;;5075543;28;20029;-80
2021/05/20 06:22:47;;;;;;;15.10;10.45;;;11.60;95.30;;;;;;5075776;28;20029;-80
2021/05/20 06:25:13;;;;;;;16.75;10.45;;;11.50;96.60;;;;;;5074563;28;20021;-80
2021/05/20 06:27:38;;;;;;;14.98;9.00;;;11.40;95.70;;;;;;5074329;28;20024;-79
2021/05/20 06:30:05;;;;;;;14.15;8.88;;;11.20;95.30;;;;;;5075629;28;20151;-80
2021/05/20 06:32:31;;;;;;;19.77;12.13;;;11.30;98.70;;;;;;5075575;28;20062;-80
2021/05/20 06:34:56;;;;;;;17.05;10.07;;;11.20;97.30;;;;;;5075535;28;20071;-80
2021/05/20 06:37:22;;;;;;;14.07;8.77;;;11.30;97.00;;;;;;5075450;28;20029;-79
2021/05/20 06:39:48;;;;;;;12.98;9.38;;;11.30;97.40;;;;;;5074286;28;20035;-80
2021/05/20 06:42:15;;;;;;;12.63;9.35;;;11.30;98.80;;;;;;5074121;28;20024;-80
2021/05/20 06:44:42;;;;;;;16.13;10.25;;;11.30;98.80;;;;;;5074205;28;20416;-79
2021/05/20 06:47:07;;;;;;;15.57;11.32;;;11.30;99.90;;;;;;5074065;28;20475;-80
2021/05/20 06:49:33;;;;;;;15.90;11.15;;;11.30;99.00;;;;;;5074097;28;20028;-80
2021/05/20 06:51:59;;;;;;;14.05;9.80;;;11.40;97.70;;;;;;5075345;28;20498;-80
2021/05/20 06:54:25;;;;;;;14.00;9.82;;;11.40;99.00;;;;;;5075211;28;20035;-79
2021/05/20 06:56:55;;;;;;;15.75;9.50;;;11.50;98.10;;;;;;5075205;28;20028;-80
2021/05/20 07:02:05;;;;;;;13.48;9.18;;;11.60;96.20;;;;;;5075176;28;20035;-80
2021/05/20 07:04:31;;;;;;;12.63;9.13;;;11.60;94.50;;;;;;5074989;28;20425;-80
2021/05/20 07:07:01;;;;;;;12.73;8.20;;;11.80;97.30;;;;;;5073810;28;20021;-80
2021/05/20 07:09:28;;;;;;;13.23;8.30;;;12.00;94.40;;;;;;5073761;28;20652;-80
2021/05/20 07:11:55;;;;;;;11.45;8.30;;;12.30;91.80;;;;;;5073602;28;20021;-80
2021/05/20 07:14:21;;;;;;;11.35;6.78;;;12.40;89.00;;;;;;5073565;28;20048;-79
2021/05/20 07:16:47;;;;;;;8.98;5.75;;;12.60;87.20;;;;;;5074715;28;20393;-80
2021/05/20 07:19:13;;;;;;;7.88;5.85;;;12.60;83.70;;;;;;5074347;28;20059;-80
2021/05/20 07:21:38;;;;;;;8.27;5.57;;;12.70;81.10;;;;;;5074692;28;20032;-80
2021/05/20 07:24:05;;;;;;;6.97;4.93;;;12.90;79.90;;;;;;5073271;28;20159;-80
2021/05/20 07:26:30;;;;;;;5.30;4.00;;;13.10;74.10;;;;;;5073074;28;20047;-80
2021/05/20 07:28:56;;;;;;;6.72;4.28;;;12.90;71.80;;;;;;5071299;28;20478;-80
2021/05/20 07:31:22;;;;;;;7.53;3.90;;;13.00;69.20;;;;;;5074555;28;20048;-80
2021/05/20 07:33:47;;;;;;;3.40;3.13;;;13.00;68.10;;;;;;5073180;28;20021;-80
2021/05/20 07:36:13;;;;;;;4.38;3.30;;;12.90;67.10;;;;;;5074495;28;20033;-81
2021/05/20 07:38:39;;;;;;;3.13;2.80;;;13.10;65.30;;;;;;5073211;28;20029;-79
2021/05/20 07:41:06;;;;;;;3.50;2.60;;;13.20;64.90;;;;;;5073063;28;20028;-80
2021/05/20 07:43:32;;;;;;;3.67;2.42;;;12.90;62.30;;;;;;5073029;28;20020;-80
2021/05/20 07:45:58;;;;;;;4.63;2.80;;;13.20;62.40;;;;;;5074296;28;20033;-80
2021/05/20 07:48:24;;;;;;;3.00;2.67;;;13.60;61.80;;;;;;5072886;28;20034;-79
2021/05/20 07:50:49;;;;;;;3.30;2.92;;;13.60;61.40;;;;;;5072915;28;20107;-80
2021/05/20 07:53:15;;;;;;;7.45;3.47;;;13.80;61.40;;;;;;5074142;28;20029;-80
2021/05/20 07:55:41;;;;;;;7.85;4.45;;;13.80;60.30;;;;;;5074060;28;20371;-80
2021/05/20 07:58:06;;;;;;;6.18;3.17;;;13.60;61.40;;;;;;5074003;28;20032;-80
2021/05/20 08:00:32;;;;;;;4.20;3.00;;;13.60;61.60;;;;;;5073989;28;20024;-80
2021/05/20 08:05:42;;;;;;;3.15;2.67;;;13.10;62.50;;;;;;5073977;28;20037;-80
2021/05/20 08:11:05;;;;;;;6.43;2.45;;;13.10;61.80;;;;;;5073879;28;20025;-80
2021/05/20 08:13:32;;;;;;;5.18;2.35;;;13.50;62.70;;;;;;5072396;28;20031;-80
2021/05/20 08:15:59;;;;;;;3.67;2.40;;;13.80;62.10;;;;;;5072417;28;20020;-80
2021/05/20 08:18:25;;;;;;;2.20;2.00;;;14.00;60.00;;;;;;5073487;28;20078;-80
2021/05/20 08:20:51;;;;;;;2.45;2.25;;;14.30;60.50;;;;;;5073597;28;20021;-80
2021/05/20 08:23:16;;;;;;;3.05;2.50;;;14.10;59.40;;;;;;5071259;28;20036;-80
2021/05/20 08:25:42;;;;;;;2.50;2.30;;;14.10;59.10;;;;;;5073334;28;20466;-80
2021/05/20 08:28:08;;;;;;;2.88;1.92;;;14.40;58.80;;;;;;5071962;28;20040;-80
2021/05/20 08:30:34;;;;;;;3.53;1.88;;;14.40;56.40;;;;;;5071283;28;20032;-79
2021/05/20 08:32:59;;;;;;;1.70;1.60;;;14.50;55.90;;;;;;5073394;28;20020;-80
2021/05/20 08:35:25;;;;;;;2.20;1.98;;;14.70;56.20;;;;;;5073320;28;20040;-80
2021/05/20 08:37:51;;;;;;;3.38;1.92;;;14.90;55.90;;;;;;5071957;28;20036;-79
2021/05/20 08:40:17;;;;;;;4.05;1.77;;;14.90;55.40;;;;;;5072000;28;20045;-79
2021/05/20 08:42:43;;;;;;;3.80;1.50;;;14.90;53.60;;;;;;5071869;28;20070;-79
2021/05/20 08:45:14;;;;;;;3.10;1.48;;;14.70;53.50;;;;;;5073192;28;20031;-80
2021/05/20 08:47:40;;;;;;;2.10;1.70;;;14.80;54.00;;;;;;5071786;28;20059;-80
2021/05/20 08:50:07;;;;;;;1.63;1.52;;;14.80;52.70;;;;;;5071860;28;20494;-80
2021/05/20 08:52:35;;;;;;;1.55;1.45;;;14.70;53.10;;;;;;5071643;28;20028;-80
2021/05/20 08:55:02;;;;;;;1.98;1.15;;;15.10;52.80;;;;;;5073139;28;20467;-79
2021/05/20 08:57:28;;;;;;;1.75;0.90;;;14.60;48.80;;;;;;5071605;28;20137;-80
2021/05/20 08:59:54;;;;;;;1.05;1.00;;;14.40;47.80;;;;;;5071762;28;20042;-79
2021/05/20 09:02:30;;;;;;;1.25;0.98;;;14.60;48.20;;;;;;5071667;28;20029;-80
2021/05/20 09:05:00;;;;;;;1.48;1.00;;;14.70;47.20;;;;;;5071553;28;20462;-80
2021/05/20 09:07:36;;;;;;;1.77;0.98;;;14.90;47.50;;;;;;5071600;28;20494;-80
2021/05/20 09:10:20;;;;;;;1.35;1.00;;;14.80;47.30;;;;;;5071700;28;20390;-80
2021/05/20 09:12:48;;;;;;;1.30;1.02;;;14.90;48.00;;;;;;5072855;28;20027;-80
2021/05/20 09:15:26;;;;;;;3.05;1.00;;;14.80;47.40;;;;;;5072849;28;20028;-80
2021/05/20 09:17:52;;;;;;;3.80;1.20;;;14.60;48.00;;;;;;5072801;28;20061;-80
2021/05/20 09:20:21;;;;;;;3.03;1.10;;;14.20;51.30;;;;;;5072811;28;20501;-80
2021/05/20 09:23:00;;;;;;;1.83;1.27;;;14.30;50.30;;;;;;5071443;28;20021;-80
2021/05/20 09:25:30;;;;;;;1.00;0.90;;;14.50;50.20;;;;;;5072901;28;20520;-80
2021/05/20 09:27:56;;;;;;;1.00;0.90;;;14.60;47.70;;;;;;5071401;28;20099;-80
2021/05/20 09:30:24;;;;;;;1.58;0.90;;;14.90;46.70;;;;;;5072637;28;20587;-80
2021/05/20 09:32:54;;;;;;;3.25;0.90;;;15.20;46.60;;;;;;5071398;28;20035;-80
2021/05/20 09:35:22;;;;;;;1.40;1.20;;;15.30;46.30;;;;;;5071702;28;20028;-80
2021/05/20 09:37:54;;;;;;;2.85;1.20;;;15.30;46.40;;;;;;5071072;28;20036;-80
2021/05/20 09:40:25;;;;;;;1.30;1.07;;;15.50;46.80;;;;;;5071416;28;20025;-80
2021/05/20 09:42:51;;;;;;;1.83;1.10;;;15.30;46.00;;;;;;5074465;28;20349;-80
2021/05/20 09:45:20;;;;;;;0.70;0.70;;;15.50;46.30;;;;;;5075387;28;20113;-80
2021/05/20 09:47:47;;;;;;;3.70;0.82;;;15.40;45.60;;;;;;5073722;28;20025;-80
2021/05/20 09:50:21;;;;;;;2.15;0.90;;;15.40;44.50;;;;;;5076551;28;20019;-80
2021/05/20 09:52:48;;;;;;;3.80;0.70;;;15.50;44.50;;;;;;5075268;28;20025;-80
2021/05/20 09:55:28;;;;;;;0.90;0.77;;;15.50;44.40;;;;;;5075202;28;20039;-80
2021/05/20 09:57:56;;;;;;;1.50;0.80;;;15.50;43.80;;;;;;5076237;28;20032;-80
2021/05/20 10:00:24;;;;;;;0.90;0.90;;;15.50;44.30;;;;;;5075088;28;20032;-80
2021/05/20 10:03:07;;;;;;;1.10;0.50;;;15.60;44.00;;;;;;5074940;28;20028;-80
2021/05/20 10:05:44;;;;;;;1.05;0.65;;;15.60;43.30;;;;;;5074879;28;20064;-80
2021/05/20 10:08:17;;;;;;;1.75;0.70;;;15.50;44.80;;;;;;5076118;28;20016;-80
2021/05/20 10:10:48;;;;;;;0.70;0.70;;;15.30;44.70;;;;;;5074810;28;20012;-80
2021/05/20 10:13:17;;;;;;;1.02;0.90;;;15.40;45.80;;;;;;5074797;28;20424;-80
2021/05/20 10:15:43;;;;;;;1.75;1.00;;;15.50;46.00;;;;;;5075946;28;20104;-79
2021/05/20 10:18:11;;;;;;;3.08;0.73;;;15.20;46.00;;;;;;5074511;28;20032;-80
2021/05/20 10:20:39;;;;;;;4.57;0.88;;;14.90;45.70;;;;;;5075807;28;20436;-80
2021/05/20 10:23:21;;;;;;;0.80;0.60;;;15.10;45.80;;;;;;5075820;28;20028;-80
2021/05/20 10:25:48;;;;;;;;;;;15.20;44.70;;;;;;5075323;28;20016;-80
2021/05/20 10:28:16;;;;;;;2.17;1.00;;;15.50;45.10;;;;;;5075726;28;19904;-80
2021/05/20 10:30:44;;;;;;;1.67;0.80;;;15.60;45.40;;;;;;5075632;28;20099;-80
2021/05/20 10:33:10;;;;;;;2.00;0.82;;;15.50;45.70;;;;;;5074282;28;20161;-80
2021/05/20 10:35:44;;;;;;;2.15;0.85;;;15.50;43.80;;;;;;5074236;28;20058;-80
2021/05/20 10:38:13;;;;;;;0.68;0.60;;;15.60;43.20;;;;;;5075503;28;20037;-80
2021/05/20 10:40:39;;;;;;;1.48;0.88;;;15.70;43.40;;;;;;5075527;28;20378;-80
2021/05/20 10:43:06;;;;;;;0.88;0.80;;;15.80;43.30;;;;;;5075525;28;20066;-80
2021/05/20 10:45:33;;;;;;;1.58;0.82;;;16.10;44.30;;;;;;5074064;28;20051;-80
2021/05/20 10:48:05;;;;;;;1.58;0.80;;;16.00;44.70;;;;;;5073853;28;20438;-80
2021/05/20 10:50:50;;;;;;;1.30;0.73;;;15.90;45.10;;;;;;5075343;28;20390;-80
2021/05/20 10:53:40;;;;;;;1.45;0.90;;;15.50;42.40;;;;;;5074379;28;20024;-80
2021/05/20 10:56:12;;;;;;;3.17;0.93;;;15.70;42.90;;;;;;5074065;28;20029;-80
2021/05/20 10:58:38;;;;;;;1.40;0.80;;;15.70;43.70;;;;;;5073936;28;20032;-80
2021/05/20 11:01:08;;;;;;;2.60;1.23;;;15.30;44.60;;;;;;5075221;28;20427;-80
2021/05/20 11:03:50;;;;;;;1.85;0.77;;;15.00;45.10;;;;;;5073796;28;20050;-80
2021/05/20 11:06:17;;;;;;;3.20;0.82;;;15.00;44.00;;;;;;5075137;28;20044;-80
2021/05/20 11:08:45;;;;;;;1.38;0.60;;;15.40;44.20;;;;;;5075072;28;20382;-80
2021/05/20 11:11:29;;;;;;;3.38;0.60;;;15.50;44.40;;;;;;5075071;28;20024;-80
2021/05/20 11:13:55;;;;;;;1.75;1.10;;;15.90;44.60;;;;;;5074911;28;20035;-80
2021/05/20 11:16:32;;;;;;;2.17;0.70;;;15.80;43.60;;;;;;5074863;28;20020;-80
2021/05/20 11:19:23;;;;;;;1.05;0.80;;;15.80;43.40;;;;;;5073564;28;20021;-80
2021/05/20 11:21:58;;;;;;;0.75;0.68;;;15.70;43.10;;;;;;5074871;28;20032;-81
2021/05/20 11:24:26;;;;;;;0.85;0.60;;;15.70;43.90;;;;;;5074099;28;20025;-80
2021/05/20 11:26:56;;;;;;;2.15;0.77;;;16.00;43.60;;;;;;5074330;28;20424;-80
2021/05/20 11:29:25;;;;;;;1.13;0.65;;;15.50;43.80;;;;;;5073356;28;20462;-80
2021/05/20 11:31:54;;;;;;;3.08;0.73;;;15.50;43.90;;;;;;5074015;28;20056;-80
2021/05/20 11:37:32;;;;;;;5.20;0.93;;;15.40;43.60;;;;;;5076839;28;20040;-80
2021/05/20 11:39:58;;;;;;;2.38;1.20;;;15.80;43.30;;;;;;5073243;28;20135;-80
2021/05/20 11:42:29;;;;;;;1.95;1.25;;;15.90;43.80;;;;;;5072889;28;20027;-80
2021/05/20 11:44:56;;;;;;;1.98;0.80;;;15.90;44.00;;;;;;5073021;28;20020;-79
2021/05/20 11:47:22;;;;;;;1.20;0.70;;;15.80;43.60;;;;;;5074303;28;20029;-79
2021/05/20 11:49:49;;;;;;;0.80;0.60;;;15.90;44.00;;;;;;5073010;28;20257;-80
2021/05/20 11:52:15;;;;;;;6.13;2.72;;;16.20;43.00;;;;;;5072892;28;20020;-79
2021/05/20 11:54:48;;;;;;;0.40;0.40;;;16.20;41.90;;;;;;5073294;28;20378;-79
2021/05/20 11:57:16;;;;;;;0.82;0.70;;;15.80;42.50;;;;;;5071933;28;20032;-80
2021/05/20 11:59:43;;;;;;;3.42;0.90;;;15.70;43.30;;;;;;5072605;28;20066;-80
2021/05/20 12:02:17;;;;;;;1.45;0.93;;;15.40;42.80;;;;;;5072666;28;20077;-80
2021/05/20 12:04:43;;;;;;;0.80;0.80;;;15.80;43.50;;;;;;5072542;28;20032;-79
2021/05/20 12:07:25;;;;;;;1.30;0.50;;;15.80;41.90;;;;;;5073963;28;20032;-80
2021/05/20 12:09:52;;;;;;;0.60;0.60;;;16.10;41.30;;;;;;5073911;28;20043;-80
2021/05/20 12:12:19;;;;;;;4.20;0.95;;;16.40;41.20;;;;;;5073785;28;20032;-79
2021/05/20 12:14:46;;;;;;;1.95;0.85;;;16.90;41.60;;;;;;5072493;28;20029;-80
2021/05/20 12:17:16;;;;;;;1.83;1.20;;;16.70;41.20;;;;;;5068921;28;20040;-80
2021/05/20 12:19:46;;;;;;;0.80;0.77;;;16.50;42.10;;;;;;5072125;28;20118;-80
2021/05/20 12:22:16;;;;;;;1.20;0.80;;;16.00;40.30;;;;;;5072175;28;20021;-80
2021/05/20 12:24:49;;;;;;;0.93;0.82;;;16.40;41.30;;;;;;5073317;28;20020;-80
2021/05/20 12:27:21;;;;;;;3.67;0.80;;;16.50;40.80;;;;;;5060836;28;20048;-80
2021/05/20 12:29:56;;;;;;;0.85;0.85;;;16.70;40.20;;;;;;5051971;28;20029;-80
2021/05/20 12:32:23;;;;;;;0.90;0.68;;;16.50;39.80;;;;;;5060691;28;20051;-79
2021/05/20 12:35:15;;;;;;;0.57;0.57;;;16.40;40.20;;;;;;5072023;28;20082;-78
2021/05/20 12:37:43;;;;;;;4.68;0.80;;;16.20;40.10;;;;;;5070948;28;20033;-78
2021/05/20 12:40:23;;;;;;;1.65;0.60;;;16.40;39.80;;;;;;5072419;28;20561;-78
2021/05/20 12:43:14;;;;;;;3.50;1.00;;;16.70;39.60;;;;;;5072437;28;20478;-78
2021/05/20 12:45:44;;;;;;;4.63;1.40;;;16.80;39.70;;;;;;5070657;28;20040;-78
2021/05/20 12:48:22;;;;;;;2.15;1.00;;;17.00;39.90;;;;;;5072117;28;20025;-78
2021/05/20 12:50:47;;;;;;;1.75;0.90;;;17.10;39.70;;;;;;5071167;28;20478;-79
2021/05/20 12:53:24;;;;;;;1.85;1.33;;;16.50;39.20;;;;;;5072069;28;20034;-78
2021/05/20 12:55:51;;;;;;;2.53;1.73;;;16.70;39.10;;;;;;5069357;28;20068;-78